Time;durP1;ratioP1;P1;durP2;ratioP2;P2;SDS_P1;SDS_P2;PMS_P1;PMS_P2;Temp;Humidity;BMP_temperature;BMP_pressure;BME280_temperature;BME280_humidity;BME280_pressure;Samples;Min_cycle;Max_cycle;Signal;HPM_P1;HPM_P2
2023/11/01 00:01:32;;;;;;;16.10;10.70;;;;;;;17.15;100.00;98246.11;109446;1251;72689;-55
2023/11/01 00:03:59;;;;;;;17.70;10.20;;;;;;;17.07;100.00;98247.61;109578;1254;60529;-55
2023/11/01 00:06:26;;;;;;;22.50;12.20;;;;;;;17.20;100.00;98254.27;109495;1253;59875;-56
2023/11/01 00:08:53;;;;;;;25.90;11.40;;;;;;;17.16;100.00;98258.09;109637;1251;74390;-56
2023/11/01 00:11:19;;;;;;;21.50;12.80;;;;;;;17.04;100.00;98255.06;109654;1251;68530;-56
2023/11/01 00:13:46;;;;;;;23.30;11.30;;;;;;;17.03;100.00;98252.16;109674;1251;72439;-56
2023/11/01 00:16:13;;;;;;;18.60;9.60;;;;;;;17.04;100.00;98241.52;109633;1251;61768;-56
2023/11/01 00:18:40;;;;;;;22.10;10.70;;;;;;;17.10;100.00;98238.00;109683;1251;59736;-54
2023/11/01 00:21:06;;;;;;;23.90;12.30;;;;;;;17.11;100.00;98238.45;109666;1251;74303;-55
2023/11/01 00:23:33;;;;;;;20.70;12.70;;;;;;;17.11;100.00;98231.59;109659;1251;68778;-55
2023/11/01 00:26:00;;;;;;;22.10;11.70;;;;;;;17.14;100.00;98228.11;109598;1251;72830;-55
2023/11/01 00:28:30;;;;;;;20.00;12.10;;;;;;;17.08;100.00;98232.23;109639;1250;60567;-57
2023/11/01 00:30:56;;;;;;;18.40;12.10;;;;;;;17.08;100.00;98241.80;109397;1251;60517;-56
2023/11/01 00:33:23;;;;;;;20.60;11.10;;;;;;;16.97;100.00;98243.17;109647;1250;74228;-56
2023/11/01 00:35:50;;;;;;;26.40;15.40;;;;;;;16.99;100.00;98243.80;109642;1251;68760;-55
2023/11/01 00:38:21;;;;;;;26.80;11.70;;;;;;;17.07;100.00;98242.93;109657;1251;72674;-56
2023/11/01 00:40:47;;;;;;;20.90;12.00;;;;;;;16.88;100.00;98240.16;109661;1251;61937;-56
2023/11/01 00:43:14;;;;;;;24.10;13.90;;;;;;;16.72;100.00;98239.67;109645;1251;60167;-55
2023/11/01 00:45:40;;;;;;;22.50;13.20;;;;;;;16.67;100.00;98236.44;109661;1251;74337;-55
2023/11/01 00:48:07;;;;;;;18.70;10.10;;;;;;;16.68;100.00;98233.79;109595;1250;67508;-54
2023/11/01 00:50:34;;;;;;;9.00;5.70;;;;;;;16.75;100.00;98231.77;109665;1251;72596;-56
2023/11/01 00:53:01;;;;;;;20.50;12.80;;;;;;;16.59;100.00;98229.11;109615;1251;61116;-55
2023/11/01 00:55:27;;;;;;;23.20;11.90;;;;;;;16.64;100.00;98224.52;109682;1251;60356;-55
2023/11/01 00:57:54;;;;;;;26.70;12.20;;;;;;;16.56;100.00;98225.73;109611;1251;75486;-55
2023/11/01 01:00:22;;;;;;;20.40;11.00;;;;;;;16.58;100.00;98223.02;109659;1250;67701;-54
2023/11/01 01:02:48;;;;;;;27.50;14.40;;;;;;;16.59;100.00;98217.81;109596;1250;70693;-55
2023/11/01 01:05:16;;;;;;;18.40;10.40;;;;;;;16.55;100.00;98220.57;109530;1253;60898;-55
2023/11/01 01:07:42;;;;;;;23.90;13.60;;;;;;;16.46;100.00;98225.96;109502;1251;59731;-56
2023/11/01 01:10:09;;;;;;;20.40;11.60;;;;;;;16.52;100.00;98225.42;109756;1251;74289;-54
2023/11/01 01:12:36;;;;;;;18.80;11.70;;;;;;;16.52;100.00;98223.87;109744;1250;68611;-55
2023/11/01 01:15:03;;;;;;;21.60;12.20;;;;;;;16.40;100.00;98226.61;109379;1251;71653;-54
2023/11/01 01:17:30;;;;;;;32.30;14.70;;;;;;;16.41;100.00;98237.13;109735;1250;60727;-55
2023/11/01 01:19:56;;;;;;;30.00;15.40;;;;;;;16.47;100.00;98229.63;109776;1250;59623;-55
2023/11/01 01:22:23;;;;;;;26.20;14.60;;;;;;;16.52;100.00;98229.38;109756;1250;74274;-55
2023/11/01 01:24:49;;;;;;;26.80;15.30;;;;;;;16.60;100.00;98229.69;109759;1250;67460;-56
2023/11/01 01:27:18;;;;;;;22.70;14.60;;;;;;;16.66;100.00;98231.86;109376;1250;72479;-54
2023/11/01 01:29:44;;;;;;;24.00;13.90;;;;;;;16.59;100.00;98229.86;109722;1250;61853;-55
2023/11/01 01:32:11;;;;;;;22.20;12.20;;;;;;;16.70;100.00;98234.80;109708;1251;60283;-56
2023/11/01 01:34:37;;;;;;;21.30;13.10;;;;;;;16.75;100.00;98238.64;109791;1250;75495;-56
2023/11/01 01:37:04;;;;;;;24.30;12.40;;;;;;;16.85;100.00;98239.70;109704;1251;68714;-54
2023/11/01 01:39:31;;;;;;;21.60;13.10;;;;;;;16.73;100.00;98237.67;109730;1251;72600;-56
2023/11/01 01:41:57;;;;;;;20.20;9.50;;;;;;;15.81;100.00;98229.95;109736;1250;60577;-56
2023/11/01 01:44:24;;;;;;;23.30;12.20;;;;;;;15.84;100.00;98233.87;109362;1251;60295;-56
2023/11/01 01:46:51;;;;;;;20.70;9.90;;;;;;;16.02;100.00;98234.94;109772;1250;75464;-55
2023/11/01 01:49:17;;;;;;;21.40;11.50;;;;;;;16.08;100.00;98231.97;109770;1251;68771;-54
2023/11/01 01:51:44;;;;;;;18.30;11.90;;;;;;;16.09;100.00;98230.06;109764;1251;71103;-55
2023/11/01 01:54:11;;;;;;;28.40;11.90;;;;;;;16.05;100.00;98229.20;109722;1250;61119;-54
2023/11/01 01:56:37;;;;;;;22.20;11.90;;;;;;;16.02;100.00;98228.38;109628;1251;60315;-55
2023/11/01 01:59:04;;;;;;;26.10;14.00;;;;;;;16.04;100.00;98224.05;109653;1251;74085;-54
2023/11/01 02:01:31;;;;;;;23.80;13.10;;;;;;;16.06;100.00;98216.95;109613;1251;66301;-55
2023/11/01 02:04:09;;;;;;;36.30;18.60;;;;;;;15.92;100.00;98214.27;109571;1252;71208;-54
2023/11/01 02:06:35;;;;;;;27.50;16.70;;;;;;;16.04;100.00;98219.81;109226;1252;60844;-55
2023/11/01 02:09:05;;;;;;;22.40;11.70;;;;;;;16.15;100.00;98216.31;109709;1250;60117;-55
2023/11/01 02:11:32;;;;;;;23.90;13.30;;;;;;;16.00;100.00;98215.17;109519;1250;75409;-55
2023/11/01 02:13:59;;;;;;;24.20;12.20;;;;;;;15.97;100.00;98214.55;109612;1251;67348;-56
2023/11/01 02:16:25;;;;;;;25.70;13.80;;;;;;;15.84;100.00;98216.64;109720;1250;70705;-55
2023/11/01 02:18:52;;;;;;;31.60;13.90;;;;;;;16.02;100.00;98219.34;109736;1250;60995;-55
2023/11/01 02:21:19;;;;;;;25.30;13.00;;;;;;;16.05;100.00;98217.14;109626;1251;59868;-55
2023/11/01 02:23:45;;;;;;;32.80;15.30;;;;;;;15.87;100.00;98215.29;109742;1250;74196;-54
2023/11/01 02:26:12;;;;;;;25.90;12.80;;;;;;;15.72;100.00;98213.99;109404;1251;68685;-55
2023/11/01 02:28:39;;;;;;;20.50;14.20;;;;;;;15.75;100.00;98218.46;109781;1250;71618;-54
2023/11/01 02:31:07;;;;;;;20.90;12.50;;;;;;;15.84;100.00;98217.81;109768;1250;61101;-53
2023/11/01 02:33:33;;;;;;;23.30;12.00;;;;;;;15.80;100.00;98215.69;109794;1250;59871;-55
2023/11/01 02:36:00;;;;;;;27.60;14.20;;;;;;;15.79;100.00;98213.12;109353;1251;73183;-53
2023/11/01 02:38:27;;;;;;;32.20;18.70;;;;;;;15.81;100.00;98219.51;109750;1250;67491;-54
2023/11/01 02:40:53;;;;;;;25.10;15.70;;;;;;;15.85;100.00;98221.52;109619;1251;72846;-55
2023/11/01 02:43:20;;;;;;;28.70;15.10;;;;;;;15.89;100.00;98208.42;109526;1251;60590;-55
2023/11/01 02:45:47;;;;;;;31.10;14.80;;;;;;;15.90;100.00;98203.95;109763;1250;59736;-55
2023/11/01 02:48:13;;;;;;;44.30;24.60;;;;;;;15.94;100.00;98210.27;109591;1253;75589;-54
2023/11/01 02:50:40;;;;;;;30.00;17.40;;;;;;;15.91;100.00;98209.82;109742;1251;66830;-55
2023/11/01 02:53:06;;;;;;;24.20;14.50;;;;;;;15.90;100.00;98201.32;109654;1251;72510;-56
2023/11/01 02:55:33;;;;;;;34.10;18.10;;;;;;;15.86;100.00;98201.36;109327;1251;61890;-54
2023/11/01 02:58:02;;;;;;;64.50;32.60;;;;;;;15.80;100.00;98203.62;109781;1250;59761;-55
2023/11/01 03:00:28;;;;;;;36.40;18.30;;;;;;;15.85;100.00;98204.95;109747;1250;75347;-55
2023/11/01 03:02:57;;;;;;;80.50;37.10;;;;;;;15.83;100.00;98205.30;109353;1252;66299;-55
2023/11/01 03:05:27;;;;;;;49.90;23.90;;;;;;;15.82;100.00;98200.41;109579;1252;72533;-55
2023/11/01 03:07:54;;;;;;;37.50;21.10;;;;;;;15.78;100.00;98201.14;109538;1251;61143;-54
2023/11/01 03:10:21;;;;;;;58.10;25.40;;;;;;;15.81;100.00;98193.16;109615;1251;60305;-54
2023/11/01 03:12:48;;;;;;;53.80;25.00;;;;;;;15.86;100.00;98192.60;109676;1251;75252;-54
2023/11/01 03:15:15;;;;;;;39.30;19.40;;;;;;;15.84;100.00;98188.34;109663;1251;68615;-54
2023/11/01 03:17:42;;;;;;;43.60;22.40;;;;;;;15.99;100.00;98181.94;109645;1251;70401;-53
2023/11/01 03:20:10;;;;;;;41.40;21.10;;;;;;;15.81;100.00;98171.92;109599;1251;60848;-55
2023/11/01 03:22:37;;;;;;;75.20;38.20;;;;;;;15.66;100.00;98167.83;109649;1251;59611;-54
2023/11/01 03:25:04;;;;;;;69.50;31.30;;;;;;;15.55;100.00;98168.27;109653;1251;76056;-55
2023/11/01 03:27:31;;;;;;;36.10;17.80;;;;;;;15.66;100.00;98181.54;109665;1251;68877;-54
2023/11/01 03:29:57;;;;;;;37.80;19.60;;;;;;;15.76;100.00;98197.04;109629;1251;73238;-54
2023/11/01 03:32:24;;;;;;;30.90;19.50;;;;;;;15.70;100.00;98204.36;109627;1251;61725;-54
2023/11/01 03:34:51;;;;;;;41.20;25.90;;;;;;;15.85;100.00;98204.85;109620;1251;59704;-55
2023/11/01 03:37:18;;;;;;;38.30;23.60;;;;;;;16.00;100.00;98205.95;109658;1251;74263;-55
2023/11/01 03:39:45;;;;;;;53.00;26.30;;;;;;;16.02;100.00;98203.26;109649;1251;67474;-55
2023/11/01 03:42:11;;;;;;;36.20;21.80;;;;;;;16.00;100.00;98201.23;109630;1250;72698;-55
2023/11/01 03:44:38;;;;;;;47.40;23.00;;;;;;;15.96;100.00;98205.95;109641;1251;61698;-54
2023/11/01 03:47:05;;;;;;;56.90;23.00;;;;;;;16.05;100.00;98215.04;109637;1251;59898;-54
2023/11/01 03:49:31;;;;;;;47.00;19.80;;;;;;;16.02;100.00;98210.75;109636;1250;74157;-56
2023/11/01 03:52:01;;;;;;;34.10;18.90;;;;;;;16.02;100.00;98211.05;109375;1251;68603;-54
2023/11/01 03:54:29;;;;;;;36.70;20.30;;;;;;;15.97;100.00;98213.78;109574;1251;72526;-55
2023/11/01 03:56:56;;;;;;;33.20;21.20;;;;;;;15.92;100.00;98208.85;109575;1251;61922;-55
2023/11/01 03:59:22;;;;;;;33.10;19.10;;;;;;;16.11;100.00;98207.80;109623;1251;59797;-55
2023/11/01 04:01:49;;;;;;;35.70;20.20;;;;;;;16.20;100.00;98210.03;109646;1251;74298;-55
2023/11/01 04:04:16;;;;;;;33.80;22.20;;;;;;;16.38;100.00;98207.34;109542;1252;68512;-56
2023/11/01 04:06:43;;;;;;;34.90;17.50;;;;;;;16.45;100.00;98205.31;109571;1252;71471;-55
2023/11/01 04:09:10;;;;;;;43.80;22.10;;;;;;;16.26;100.00;98207.55;109638;1250;61889;-55
2023/11/01 04:11:37;;;;;;;42.40;23.60;;;;;;;16.25;100.00;98206.77;109765;1250;59703;-55
2023/11/01 04:14:03;;;;;;;27.80;15.00;;;;;;;16.25;100.00;98209.46;109752;1250;75613;-55
2023/11/01 04:16:30;;;;;;;52.60;27.90;;;;;;;16.21;100.00;98211.84;109443;1251;69031;-55
2023/11/01 04:18:57;;;;;;;36.50;16.70;;;;;;;16.12;100.00;98214.83;109736;1250;70975;-55
2023/11/01 04:21:24;;;;;;;44.10;23.00;;;;;;;16.16;100.00;98212.96;109727;1250;60537;-55
2023/11/01 04:23:54;;;;;;;71.60;36.40;;;;;;;16.30;100.00;98206.96;109765;1250;60099;-55
2023/11/01 04:26:20;;;;;;;91.90;46.20;;;;;;;16.24;100.00;98209.83;109632;1250;75085;-58
2023/11/01 04:28:47;;;;;;;80.60;45.00;;;;;;;16.25;100.00;98200.71;109393;1251;68647;-55
2023/11/01 04:31:14;;;;;;;89.30;47.80;;;;;;;16.27;100.00;98198.46;109773;1250;71424;-54
2023/11/01 04:33:41;;;;;;;139.10;70.70;;;;;;;16.30;100.00;98200.48;109649;1250;116359;-54
2023/11/01 04:36:08;;;;;;;62.40;35.00;;;;;;;16.35;100.00;98206.70;109746;1250;60244;-55
2023/11/01 04:38:36;;;;;;;91.30;45.70;;;;;;;16.33;100.00;98210.65;109733;1250;75289;-54
2023/11/01 04:41:03;;;;;;;164.40;103.70;;;;;;;16.39;100.00;98209.26;109765;1250;68678;-55
2023/11/01 04:43:30;;;;;;;138.30;105.70;;;;;;;16.45;100.00;98212.14;109684;1250;72692;-55
2023/11/01 04:45:56;;;;;;;84.50;63.00;;;;;;;16.56;100.00;98222.95;109705;1250;61989;-56
2023/11/01 04:48:23;;;;;;;35.70;23.60;;;;;;;16.49;100.00;98231.71;109590;1250;59951;-56
2023/11/01 04:50:50;;;;;;;64.60;27.90;;;;;;;16.54;100.00;98237.64;109770;1250;76044;-57
2023/11/01 04:53:17;;;;;;;87.30;28.90;;;;;;;16.58;100.00;98240.98;109730;1250;68603;-56
2023/11/01 04:55:44;;;;;;;45.50;21.80;;;;;;;16.57;100.00;98245.96;109577;1251;72546;-56
2023/11/01 04:58:13;;;;;;;44.10;21.60;;;;;;;16.54;100.00;98245.14;109723;1250;61118;-54
2023/11/01 05:00:40;;;;;;;50.80;21.70;;;;;;;16.50;100.00;98241.59;109580;1250;59682;-56
2023/11/01 05:03:07;;;;;;;53.40;23.40;;;;;;;16.55;100.00;98242.11;109533;1251;75342;-56
2023/11/01 05:05:33;;;;;;;60.90;44.50;;;;;;;16.60;100.00;98241.08;109730;1250;67451;-56
2023/11/01 05:08:00;;;;;;;64.40;32.10;;;;;;;16.77;100.00;98235.65;109737;1250;71242;-56
2023/11/01 05:10:27;;;;;;;37.80;18.20;;;;;;;16.79;100.00;98241.08;109392;1251;62170;-56
2023/11/01 05:12:54;;;;;;;52.10;21.70;;;;;;;16.90;100.00;98247.02;109733;1250;60498;-56
2023/11/01 05:15:20;;;;;;;23.70;13.80;;;;;;;16.90;100.00;98252.34;109748;1250;75479;-56
2023/11/01 05:17:47;;;;;;;33.50;16.30;;;;;;;16.77;100.00;98255.05;109760;1250;68723;-54
2023/11/01 05:20:14;;;;;;;44.60;19.10;;;;;;;16.64;100.00;98255.36;109776;1250;72528;-55
2023/11/01 05:22:41;;;;;;;57.20;40.60;;;;;;;16.63;100.00;98261.77;109743;1250;61539;-55
2023/11/01 05:25:13;;;;;;;56.90;28.10;;;;;;;16.53;100.00;98259.33;109783;1250;60299;-56
2023/11/01 05:27:41;;;;;;;40.40;20.50;;;;;;;16.54;100.00;98254.41;109775;1250;74279;-56
2023/11/01 05:30:10;;;;;;;76.90;35.20;;;;;;;16.47;100.00;98257.94;109735;1250;67255;-56
2023/11/01 05:32:37;;;;;;;67.40;30.20;;;;;;;16.43;100.00;98257.64;109679;1250;72683;-57
2023/11/01 05:35:04;;;;;;;42.00;24.20;;;;;;;16.41;100.00;98265.80;109562;1250;60615;-56
2023/11/01 05:37:31;;;;;;;46.30;22.90;;;;;;;16.50;100.00;98268.76;109629;1250;60010;-55
2023/11/01 05:39:57;;;;;;;58.10;33.70;;;;;;;16.51;100.00;98266.05;109628;1250;73639;-56
2023/11/01 05:42:24;;;;;;;78.50;34.20;;;;;;;16.40;100.00;98265.33;109703;1250;68774;-56
2023/11/01 05:44:51;;;;;;;79.50;32.80;;;;;;;16.35;100.00;98267.83;109784;1250;72939;-57
2023/11/01 05:47:18;;;;;;;65.60;27.60;;;;;;;16.43;100.00;98267.01;109588;1251;62246;-55
2023/11/01 05:49:44;;;;;;;74.30;31.20;;;;;;;16.45;100.00;98266.23;109748;1250;59763;-56
2023/11/01 05:52:11;;;;;;;94.10;47.60;;;;;;;16.43;100.00;98270.80;109657;1250;73638;-56
2023/11/01 05:54:38;;;;;;;53.20;31.30;;;;;;;16.49;100.00;98275.61;109750;1250;68717;-56
2023/11/01 05:57:04;;;;;;;59.50;31.70;;;;;;;16.49;100.00;98278.52;109588;1251;72751;-56
2023/11/01 05:59:31;;;;;;;75.30;33.40;;;;;;;16.46;100.00;98286.23;109768;1250;61923;-56
2023/11/01 06:01:58;;;;;;;66.80;29.20;;;;;;;16.42;100.00;98293.93;109781;1251;59979;-57
2023/11/01 06:04:24;;;;;;;44.80;19.60;;;;;;;16.36;100.00;98300.83;109591;1251;74576;-55
2023/11/01 06:06:51;;;;;;;81.00;38.60;;;;;;;16.16;100.00;98305.84;109724;1250;68526;-57
2023/11/01 06:09:19;;;;;;;80.40;36.80;;;;;;;16.31;100.00;98310.20;109719;1250;71427;-54
2023/11/01 06:11:46;;;;;;;106.60;52.60;;;;;;;16.27;100.00;98309.48;109698;1250;62065;-53
2023/11/01 06:14:12;;;;;;;46.00;28.60;;;;;;;16.24;100.00;98309.06;109702;1250;59767;-55
2023/11/01 06:16:39;;;;;;;52.90;26.10;;;;;;;16.33;100.00;98313.66;109739;1250;75153;-56
2023/11/01 06:19:06;;;;;;;36.80;24.40;;;;;;;16.33;100.00;98319.62;109732;1250;67380;-55
2023/11/01 06:21:32;;;;;;;50.10;26.10;;;;;;;16.22;100.00;98324.73;109748;1250;72588;-55
2023/11/01 06:23:59;;;;;;;25.40;15.80;;;;;;;16.21;100.00;98326.81;109492;1250;59875;-55
2023/11/01 06:26:26;;;;;;;40.50;21.50;;;;;;;16.17;100.00;98329.70;109484;1251;60226;-56
2023/11/01 06:28:52;;;;;;;24.00;16.80;;;;;;;16.11;100.00;98336.63;109747;1250;75172;-56
2023/11/01 06:31:21;;;;;;;18.70;12.60;;;;;;;16.26;100.00;98335.21;109745;1250;67466;-56
2023/11/01 06:33:48;;;;;;;27.10;14.90;;;;;;;16.29;100.00;98337.35;109792;1250;72438;-56
2023/11/01 06:36:15;;;;;;;29.10;16.50;;;;;;;16.39;100.00;98341.65;109723;1250;60456;-56
2023/11/01 06:38:42;;;;;;;89.90;40.20;;;;;;;16.19;100.00;98342.79;109707;1250;60236;-54
2023/11/01 06:41:09;;;;;;;33.70;18.70;;;;;;;16.33;100.00;98344.48;109743;1250;75419;-54
2023/11/01 06:43:35;;;;;;;28.20;17.30;;;;;;;16.52;100.00;98342.91;109598;1251;66313;-56
2023/11/01 06:46:02;;;;;;;34.90;18.70;;;;;;;16.38;100.00;98338.98;109745;1250;59837;-55
2023/11/01 06:48:29;;;;;;;79.00;39.70;;;;;;;16.32;100.00;98337.73;109756;1250;61898;-55
2023/11/01 06:50:56;;;;;;;69.90;37.40;;;;;;;16.37;100.00;98339.30;109756;1250;60365;-55
2023/11/01 06:53:23;;;;;;;31.70;15.90;;;;;;;16.57;100.00;98337.13;109788;1250;75311;-55
2023/11/01 06:55:49;;;;;;;21.10;12.40;;;;;;;16.50;100.00;98336.91;109749;1250;68861;-53
2023/11/01 06:58:16;;;;;;;20.40;14.50;;;;;;;16.46;100.00;98336.13;109721;1250;71667;-55
2023/11/01 07:00:43;;;;;;;22.70;13.10;;;;;;;16.53;100.00;98337.52;109719;1250;59740;-55
2023/11/01 07:03:10;;;;;;;17.30;11.50;;;;;;;16.47;100.00;98334.56;109741;1250;59778;-54
2023/11/01 07:05:38;;;;;;;25.40;12.50;;;;;;;16.49;100.00;98337.82;109743;1250;75330;-54
2023/11/01 07:08:05;;;;;;;23.00;13.60;;;;;;;16.31;100.00;98332.56;109700;1250;68970;-54
2023/11/01 07:10:32;;;;;;;20.90;13.00;;;;;;;16.22;100.00;98329.55;109774;1250;72653;-54
2023/11/01 07:12:58;;;;;;;25.50;14.60;;;;;;;16.12;100.00;98328.54;109393;1250;61802;-56
2023/11/01 07:15:25;;;;;;;29.00;17.30;;;;;;;16.12;100.00;98328.63;109124;1251;59951;-53
2023/11/01 07:17:52;;;;;;;22.70;13.90;;;;;;;16.18;100.00;98329.52;109691;1250;74791;-54
2023/11/01 07:20:19;;;;;;;49.80;26.30;;;;;;;16.17;100.00;98327.55;109674;1250;67171;-53
2023/11/01 07:22:46;;;;;;;75.20;36.20;;;;;;;16.19;100.00;98327.92;109714;1251;71291;-55
2023/11/01 07:25:12;;;;;;;73.20;35.60;;;;;;;16.18;100.00;98331.21;109541;1252;60680;-53
2023/11/01 07:27:39;;;;;;;93.90;48.00;;;;;;;16.17;100.00;98332.20;109743;1250;59650;-53
2023/11/01 07:30:06;;;;;;;69.40;36.30;;;;;;;16.20;100.00;98338.95;109774;1251;74284;-53
2023/11/01 07:32:33;;;;;;;44.20;24.20;;;;;;;16.17;100.00;98335.58;109744;1251;66423;-54
2023/11/01 07:35:02;;;;;;;104.30;54.10;;;;;;;16.22;100.00;98338.43;109728;1251;72440;-54
2023/11/01 07:37:29;;;;;;;35.20;22.20;;;;;;;16.26;100.00;98339.98;109726;1250;60658;-53
2023/11/01 07:39:55;;;;;;;42.70;24.40;;;;;;;16.34;100.00;98346.70;109719;1250;59829;-53
2023/11/01 07:42:22;;;;;;;53.50;30.90;;;;;;;16.27;100.00;98347.07;109755;1250;74377;-52
2023/11/01 07:44:49;;;;;;;41.90;23.80;;;;;;;16.11;100.00;98345.13;109391;1250;68460;-54
2023/11/01 07:47:16;;;;;;;41.00;23.90;;;;;;;16.09;100.00;98349.73;109663;1250;71330;-53
2023/11/01 07:49:43;;;;;;;54.50;31.20;;;;;;;16.29;100.00;98357.27;109720;1251;60829;-53
2023/11/01 07:52:09;;;;;;;86.90;41.70;;;;;;;16.17;100.00;98355.32;109746;1250;59865;-54
2023/11/01 07:54:36;;;;;;;44.70;25.10;;;;;;;16.28;100.00;98360.28;109734;1250;74190;-53
2023/11/01 07:57:04;;;;;;;46.80;27.10;;;;;;;16.41;100.00;98364.02;109736;1250;67709;-53
2023/11/01 07:59:30;;;;;;;48.60;31.70;;;;;;;16.20;100.00;98361.94;109711;1250;71138;-54
2023/11/01 08:01:57;;;;;;;28.20;19.60;;;;;;;16.24;100.00;98366.45;109713;1250;61756;-54
2023/11/01 08:04:28;;;;;;;25.00;15.50;;;;;;;16.43;100.00;98371.23;109498;1252;60348;-54
2023/11/01 08:06:56;;;;;;;48.50;26.50;;;;;;;16.39;100.00;98370.70;109500;1252;74563;-53
2023/11/01 08:09:23;;;;;;;34.10;17.60;;;;;;;16.28;100.00;98380.60;109723;1251;67715;-54
2023/11/01 08:11:50;;;;;;;37.60;21.40;;;;;;;16.46;100.00;98382.71;109721;1250;70525;-54
2023/11/01 08:14:16;;;;;;;21.10;14.30;;;;;;;16.54;100.00;98387.48;109698;1251;60829;-53
2023/11/01 08:16:47;;;;;;;33.80;21.40;;;;;;;16.52;100.00;98390.70;109403;1251;59787;-53
2023/11/01 08:19:15;;;;;;;24.70;18.90;;;;;;;16.72;100.00;98393.27;109693;1250;75421;-54
2023/11/01 08:21:42;;;;;;;24.50;16.60;;;;;;;16.68;100.00;98393.41;109740;1250;66438;-53
2023/11/01 08:24:09;;;;;;;27.00;17.10;;;;;;;16.52;100.00;98389.23;109750;1250;72604;-54
2023/11/01 08:26:35;;;;;;;27.90;16.60;;;;;;;16.49;100.00;98389.78;109768;1250;61157;-53
2023/11/01 08:29:02;;;;;;;32.90;20.70;;;;;;;16.42;100.00;98392.12;109410;1251;60325;-53
2023/11/01 08:31:29;;;;;;;35.90;20.60;;;;;;;16.37;100.00;98404.17;109751;1250;75105;-54
2023/11/01 08:33:56;;;;;;;24.80;16.30;;;;;;;16.56;100.00;98405.29;109532;1250;66619;-53
2023/11/01 08:36:23;;;;;;;28.20;20.60;;;;;;;16.41;100.00;98405.41;109581;1251;71464;-52
2023/11/01 08:38:50;;;;;;;17.20;13.20;;;;;;;16.36;100.00;98407.30;109369;1251;60747;-53
2023/11/01 08:41:18;;;;;;;17.40;14.10;;;;;;;16.20;100.00;98408.44;109709;1251;60068;-54
2023/11/01 08:43:44;;;;;;;26.70;17.20;;;;;;;16.32;100.00;98412.14;109258;1251;74335;-54
2023/11/01 08:46:12;;;;;;;24.40;13.30;;;;;;;16.36;100.00;98414.93;109735;1250;66607;-54
2023/11/01 08:48:39;;;;;;;29.00;21.40;;;;;;;16.29;100.00;98413.63;109685;1251;72642;-54
2023/11/01 08:51:07;;;;;;;28.20;18.00;;;;;;;16.32;100.00;98418.48;109722;1250;63574;-53
2023/11/01 08:53:36;;;;;;;;;;;;;;;16.31;100.00;98416.72;109799;1250;60071;-53
2023/11/01 08:56:03;;;;;;;22.60;14.60;;;;;;;16.35;100.00;98425.86;109530;1251;75400;-53
2023/11/01 08:58:31;;;;;;;26.20;15.70;;;;;;;16.49;100.00;98421.61;109768;1250;68891;-53
2023/11/01 09:01:00;;;;;;;67.50;53.50;;;;;;;16.47;100.00;98422.06;109744;1251;72905;-52
2023/11/01 09:03:29;;;;;;;45.50;33.90;;;;;;;16.56;100.00;98420.75;109764;1251;59763;-54
2023/11/01 09:05:56;;;;;;;21.60;17.40;;;;;;;16.52;100.00;98424.00;109710;1250;59719;-55
2023/11/01 09:08:24;;;;;;;37.90;29.20;;;;;;;16.38;100.00;98427.02;109644;1251;76906;-54
2023/11/01 09:10:50;;;;;;;30.50;20.80;;;;;;;16.59;100.00;98425.98;109610;1251;68858;-55
2023/11/01 09:13:22;;;;;;;31.80;24.60;;;;;;;16.35;100.00;98424.84;109317;1251;71301;-55
2023/11/01 09:15:49;;;;;;;;;;;;;;;16.25;100.00;98426.66;109654;1251;60544;-55
2023/11/01 09:18:15;;;;;;;24.00;18.50;;;;;;;16.57;100.00;98429.60;109581;1252;59914;-55
2023/11/01 09:20:42;;;;;;;24.10;17.70;;;;;;;16.74;100.00;98427.20;109505;1252;74707;-52
2023/11/01 09:23:09;;;;;;;76.60;51.20;;;;;;;16.76;100.00;98426.77;109649;1251;70128;-57
2023/11/01 09:25:36;;;;;;;36.60;27.00;;;;;;;16.63;100.00;98421.05;109634;1251;71955;-55
2023/11/01 09:28:03;;;;;;;55.60;33.20;;;;;;;16.48;100.00;98417.39;109593;1252;62028;-55
2023/11/01 09:30:30;;;;;;;21.30;15.30;;;;;;;16.69;100.00;98414.96;109674;1253;60256;-55
2023/11/01 09:32:56;;;;;;;35.10;24.30;;;;;;;16.70;100.00;98411.36;109617;1251;75468;-54
2023/11/01 09:35:23;;;;;;;25.30;17.50;;;;;;;16.86;100.00;98416.04;109622;1250;68638;-53
2023/11/01 09:37:50;;;;;;;27.00;15.30;;;;;;;16.80;100.00;98413.08;109597;1252;72800;-55
2023/11/01 09:40:19;;;;;;;22.20;15.30;;;;;;;16.54;100.00;98410.15;109591;1252;61970;-55
2023/11/01 09:42:46;;;;;;;40.70;25.30;;;;;;;16.60;100.00;98410.10;109579;1252;59916;-53
2023/11/01 09:45:13;;;;;;;83.30;30.10;;;;;;;16.55;100.00;98418.07;109654;1253;75544;-54
2023/11/01 09:47:41;;;;;;;59.50;28.40;;;;;;;16.32;100.00;98418.92;109606;1252;67605;-54
2023/11/01 09:50:08;;;;;;;90.90;43.00;;;;;;;16.00;100.00;98421.77;109547;1252;72815;-54
2023/11/01 09:52:35;;;;;;;29.00;17.30;;;;;;;15.66;100.00;98414.65;109503;1252;60562;-54
2023/11/01 09:55:04;;;;;;;19.20;11.40;;;;;;;15.44;100.00;98417.17;109552;1251;60251;-53
2023/11/01 09:57:35;;;;;;;22.90;14.90;;;;;;;15.52;100.00;98422.66;109350;1251;75378;-53
2023/11/01 10:00:03;;;;;;;20.40;16.20;;;;;;;15.44;100.00;98423.76;109605;1251;68793;-54
2023/11/01 10:02:32;;;;;;;30.30;19.60;;;;;;;15.55;100.00;98424.04;109605;1252;72736;-54
2023/11/01 10:04:59;;;;;;;14.30;9.40;;;;;;;15.49;100.00;98428.92;109578;1252;60292;-54
2023/11/01 10:07:25;;;;;;;11.50;7.50;;;;;;;15.63;100.00;98426.57;109599;1252;59794;-54
2023/11/01 10:09:52;;;;;;;11.30;8.10;;;;;;;15.55;100.00;98429.92;109638;1252;75255;-53
2023/11/01 10:12:19;;;;;;;8.30;6.10;;;;;;;15.55;100.00;98431.70;109596;1252;69923;-54
2023/11/01 10:14:46;;;;;;;12.70;7.70;;;;;;;15.52;100.00;98430.39;109274;1252;72732;-55
2023/11/01 10:17:12;;;;;;;8.10;7.10;;;;;;;15.34;100.00;98428.61;109618;1252;61081;-54
2023/11/01 10:19:43;;;;;;;13.70;9.50;;;;;;;15.50;100.00;98436.40;109295;1252;59754;-54
2023/11/01 10:22:10;;;;;;;13.00;9.30;;;;;;;15.63;100.00;98433.00;109634;1251;75570;-54
2023/11/01 10:24:37;;;;;;;14.20;8.70;;;;;;;15.53;100.00;98433.08;109332;1252;67959;-54
2023/11/01 10:27:04;;;;;;;13.70;8.40;;;;;;;15.70;100.00;98438.89;109624;1252;71203;-54
2023/11/01 10:29:34;;;;;;;17.30;11.60;;;;;;;15.85;100.00;98444.20;109615;1253;60779;-54
2023/11/01 10:32:00;;;;;;;17.80;12.80;;;;;;;15.87;100.00;98452.86;109534;1251;61318;-54
2023/11/01 10:34:31;;;;;;;19.20;10.80;;;;;;;15.89;100.00;98460.65;109647;1253;75399;-55
2023/11/01 10:36:59;;;;;;;20.20;12.50;;;;;;;16.09;100.00;98469.27;109328;1252;68147;-54
2023/11/01 10:39:26;;;;;;;18.50;12.40;;;;;;;15.85;100.00;98469.23;109455;1252;72802;-54
2023/11/01 10:41:53;;;;;;;18.70;11.80;;;;;;;15.84;100.00;98472.96;109576;1252;60663;-55
2023/11/01 10:44:21;;;;;;;11.60;8.80;;;;;;;15.93;100.00;98466.98;109592;1252;60022;-55
2023/11/01 10:46:48;;;;;;;14.10;7.80;;;;;;;15.89;100.00;98467.24;109597;1252;75436;-54
2023/11/01 10:49:15;;;;;;;8.70;5.70;;;;;;;15.95;100.00;98466.48;109609;1252;67677;-55
2023/11/01 10:51:43;;;;;;;7.60;6.40;;;;;;;16.01;100.00;98462.71;109358;1250;72130;-53
2023/11/01 10:54:10;;;;;;;10.80;6.10;;;;;;;15.96;100.00;98463.24;109739;1254;61925;-55
2023/11/01 10:56:38;;;;;;;9.70;6.90;;;;;;;15.92;100.00;98465.45;109729;1251;60171;-55
2023/11/01 10:59:17;;;;;;;7.00;4.30;;;;;;;15.93;100.00;98470.88;109789;1250;74079;-55
2023/11/01 11:01:47;;;;;;;9.00;5.80;;;;;;;15.95;100.00;98475.54;109352;1251;69993;-54